sensor_id;sensor_type;location;lat;lon;timestamp;temperature;humidity
27376;DHT22;14844;51.302;6.354;2023-02-03T00:01:02;8.90;99.90
27376;DHT22;14844;51.302;6.354;2023-02-03T00:03:28;9.00;99.90
27376;DHT22;14844;51.302;6.354;2023-02-03T00:05:54;9.00;99.90
27376;DHT22;14844;51.302;6.354;2023-02-03T00:08:20;9.00;99.90
27376;DHT22;14844;51.302;6.354;2023-02-03T00:10:46;8.90;99.90
27376;DHT22;14844;51.302;6.354;2023-02-03T00:13:13;9.00;99.90
27376;DHT22;14844;51.302;6.354;2023-02-03T00:15:38;9.00;99.90
27376;DHT22;14844;51.302;6.354;2023-02-03T00:18:04;9.00;99.90
27376;DHT22;14844;51.302;6.354;2023-02-03T00:20:29;9.00;99.90
27376;DHT22;14844;51.302;6.354;2023-02-03T00:23:02;9.00;99.90
27376;DHT22;14844;51.302;6.354;2023-02-03T00:25:28;9.00;99.90
27376;DHT22;14844;51.302;6.354;2023-02-03T00:27:53;9.00;99.90
27376;DHT22;14844;51.302;6.354;2023-02-03T00:30:19;9.00;99.90
27376;DHT22;14844;51.302;6.354;2023-02-03T00:32:45;9.00;99.90
27376;DHT22;14844;51.302;6.354;2023-02-03T00:35:10;9.00;99.90
27376;DHT22;14844;51.302;6.354;2023-02-03T00:37:36;9.00;99.90
27376;DHT22;14844;51.302;6.354;2023-02-03T00:40:01;9.00;99.90
27376;DHT22;14844;51.302;6.354;2023-02-03T00:42:27;9.00;99.90
27376;DHT22;14844;51.302;6.354;2023-02-03T00:44:52;9.00;99.90
27376;DHT22;14844;51.302;6.354;2023-02-03T00:47:18;9.00;99.90
27376;DHT22;14844;51.302;6.354;2023-02-03T00:49:43;9.00;99.90
27376;DHT22;14844;51.302;6.354;2023-02-03T00:52:09;9.00;99.90
27376;DHT22;14844;51.302;6.354;2023-02-03T00:54:34;9.00;99.90
27376;DHT22;14844;51.302;6.354;2023-02-03T00:57:01;9.00;99.90
27376;DHT22;14844;51.302;6.354;2023-02-03T00:59:26;9.00;99.90
27376;DHT22;14844;51.302;6.354;2023-02-03T01:01:52;9.00;99.90
27376;DHT22;14844;51.302;6.354;2023-02-03T01:04:18;9.00;99.90
27376;DHT22;14844;51.302;6.354;2023-02-03T01:06:43;9.10;99.90
27376;DHT22;14844;51.302;6.354;2023-02-03T01:09:09;9.10;99.90
27376;DHT22;14844;51.302;6.354;2023-02-03T01:11:34;9.10;99.90
27376;DHT22;14844;51.302;6.354;2023-02-03T01:14:00;9.00;99.90
27376;DHT22;14844;51.302;6.354;2023-02-03T01:16:28;9.00;99.90
27376;DHT22;14844;51.302;6.354;2023-02-03T01:18:55;9.10;99.90
27376;DHT22;14844;51.302;6.354;2023-02-03T01:21:23;9.00;99.90
27376;DHT22;14844;51.302;6.354;2023-02-03T01:23:50;9.00;99.90
27376;DHT22;14844;51.302;6.354;2023-02-03T01:26:19;9.10;99.90
27376;DHT22;14844;51.302;6.354;2023-02-03T01:28:56;9.10;99.90
27376;DHT22;14844;51.302;6.354;2023-02-03T01:31:25;9.10;99.90
27376;DHT22;14844;51.302;6.354;2023-02-03T01:33:54;9.10;99.90
27376;DHT22;14844;51.302;6.354;2023-02-03T01:36:24;9.10;99.90
27376;DHT22;14844;51.302;6.354;2023-02-03T01:38:50;9.10;99.90
27376;DHT22;14844;51.302;6.354;2023-02-03T01:41:21;9.10;99.90
27376;DHT22;14844;51.302;6.354;2023-02-03T01:43:50;9.10;99.90
27376;DHT22;14844;51.302;6.354;2023-02-03T01:46:37;9.10;99.90
27376;DHT22;14844;51.302;6.354;2023-02-03T01:51:33;9.10;99.90
27376;DHT22;14844;51.302;6.354;2023-02-03T01:54:00;9.10;99.90
27376;DHT22;14844;51.302;6.354;2023-02-03T01:56:29;9.10;99.90
27376;DHT22;14844;51.302;6.354;2023-02-03T01:58:57;9.10;99.90
27376;DHT22;14844;51.302;6.354;2023-02-03T02:01:29;9.10;99.90
27376;DHT22;14844;51.302;6.354;2023-02-03T02:03:58;9.20;99.90
27376;DHT22;14844;51.302;6.354;2023-02-03T02:06:26;9.20;99.90
27376;DHT22;14844;51.302;6.354;2023-02-03T02:08:58;9.20;99.90
27376;DHT22;14844;51.302;6.354;2023-02-03T02:11:37;9.20;99.90
27376;DHT22;14844;51.302;6.354;2023-02-03T02:14:03;9.30;99.90
27376;DHT22;14844;51.302;6.354;2023-02-03T02:22:12;9.30;99.90
27376;DHT22;14844;51.302;6.354;2023-02-03T02:28:14;9.20;99.90
27376;DHT22;14844;51.302;6.354;2023-02-03T02:31:12;9.20;99.90
27376;DHT22;14844;51.302;6.354;2023-02-03T02:36:42;9.20;99.90
27376;DHT22;14844;51.302;6.354;2023-02-03T02:39:30;9.20;99.90
27376;DHT22;14844;51.302;6.354;2023-02-03T02:42:07;9.20;99.90
27376;DHT22;14844;51.302;6.354;2023-02-03T02:44:48;9.20;99.90
27376;DHT22;14844;51.302;6.354;2023-02-03T02:47:18;9.20;99.90
27376;DHT22;14844;51.302;6.354;2023-02-03T02:50:07;9.20;99.90
27376;DHT22;14844;51.302;6.354;2023-02-03T02:52:40;9.20;99.90
27376;DHT22;14844;51.302;6.354;2023-02-03T02:55:10;9.20;99.90
27376;DHT22;14844;51.302;6.354;2023-02-03T02:57:38;9.20;99.90
27376;DHT22;14844;51.302;6.354;2023-02-03T03:00:05;9.20;99.90
27376;DHT22;14844;51.302;6.354;2023-02-03T03:02:37;9.20;99.90
27376;DHT22;14844;51.302;6.354;2023-02-03T03:05:05;9.20;99.90
27376;DHT22;14844;51.302;6.354;2023-02-03T03:07:38;9.10;99.90
27376;DHT22;14844;51.302;6.354;2023-02-03T03:10:09;9.10;99.90
27376;DHT22;14844;51.302;6.354;2023-02-03T03:12:39;9.10;99.90
27376;DHT22;14844;51.302;6.354;2023-02-03T03:15:13;9.10;99.90
27376;DHT22;14844;51.302;6.354;2023-02-03T03:17:43;9.10;99.90
27376;DHT22;14844;51.302;6.354;2023-02-03T03:20:20;9.10;99.90
27376;DHT22;14844;51.302;6.354;2023-02-03T03:22:59;9.20;99.90
27376;DHT22;14844;51.302;6.354;2023-02-03T03:25:34;9.20;99.90
27376;DHT22;14844;51.302;6.354;2023-02-03T03:28:06;9.20;99.90
27376;DHT22;14844;51.302;6.354;2023-02-03T03:30:35;9.20;99.90
27376;DHT22;14844;51.302;6.354;2023-02-03T03:33:05;9.20;99.90
27376;DHT22;14844;51.302;6.354;2023-02-03T03:35:40;9.20;99.90
27376;DHT22;14844;51.302;6.354;2023-02-03T03:38:18;9.20;99.90
27376;DHT22;14844;51.302;6.354;2023-02-03T03:41:14;9.20;99.90
27376;DHT22;14844;51.302;6.354;2023-02-03T03:43:43;9.20;99.90
27376;DHT22;14844;51.302;6.354;2023-02-03T03:46:22;9.20;99.90
27376;DHT22;14844;51.302;6.354;2023-02-03T03:49:01;9.20;99.90
27376;DHT22;14844;51.302;6.354;2023-02-03T03:51:40;9.20;99.90
27376;DHT22;14844;51.302;6.354;2023-02-03T03:54:13;9.10;99.90
27376;DHT22;14844;51.302;6.354;2023-02-03T03:56:53;9.20;99.90
27376;DHT22;14844;51.302;6.354;2023-02-03T03:59:21;9.20;99.90
27376;DHT22;14844;51.302;6.354;2023-02-03T04:01:51;9.10;99.90
27376;DHT22;14844;51.302;6.354;2023-02-03T04:04:20;9.20;99.90
27376;DHT22;14844;51.302;6.354;2023-02-03T04:06:48;9.20;99.90
27376;DHT22;14844;51.302;6.354;2023-02-03T04:09:14;9.20;99.90
27376;DHT22;14844;51.302;6.354;2023-02-03T04:11:40;9.20;99.90
27376;DHT22;14844;51.302;6.354;2023-02-03T04:14:29;9.20;99.90
27376;DHT22;14844;51.302;6.354;2023-02-03T04:16:59;9.20;99.90
27376;DHT22;14844;51.302;6.354;2023-02-03T04:19:27;9.20;99.90
27376;DHT22;14844;51.302;6.354;2023-02-03T04:21:53;9.20;99.90
27376;DHT22;14844;51.302;6.354;2023-02-03T04:24:19;9.20;99.90
27376;DHT22;14844;51.302;6.354;2023-02-03T04:26:53;9.20;99.90
27376;DHT22;14844;51.302;6.354;2023-02-03T04:29:19;9.20;99.90
27376;DHT22;14844;51.302;6.354;2023-02-03T04:31:46;9.20;99.90
27376;DHT22;14844;51.302;6.354;2023-02-03T04:34:25;9.20;99.90
27376;DHT22;14844;51.302;6.354;2023-02-03T04:36:57;9.20;99.90
27376;DHT22;14844;51.302;6.354;2023-02-03T04:39:25;9.20;99.90
27376;DHT22;14844;51.302;6.354;2023-02-03T04:42:36;9.20;99.90
27376;DHT22;14844;51.302;6.354;2023-02-03T04:45:07;9.20;99.90
27376;DHT22;14844;51.302;6.354;2023-02-03T04:47:35;9.20;99.90
27376;DHT22;14844;51.302;6.354;2023-02-03T04:50:12;9.20;99.90
27376;DHT22;14844;51.302;6.354;2023-02-03T04:52:45;9.20;99.90
27376;DHT22;14844;51.302;6.354;2023-02-03T04:55:24;9.30;99.90
27376;DHT22;14844;51.302;6.354;2023-02-03T05:00:51;9.30;99.90
27376;DHT22;14844;51.302;6.354;2023-02-03T05:03:22;9.20;99.90
27376;DHT22;14844;51.302;6.354;2023-02-03T05:05:51;9.20;99.90
27376;DHT22;14844;51.302;6.354;2023-02-03T05:08:29;9.20;99.90
27376;DHT22;14844;51.302;6.354;2023-02-03T05:10:57;9.20;99.90
27376;DHT22;14844;51.302;6.354;2023-02-03T05:13:33;9.20;99.90
27376;DHT22;14844;51.302;6.354;2023-02-03T05:15:59;9.20;99.90
27376;DHT22;14844;51.302;6.354;2023-02-03T05:18:25;9.20;99.90
27376;DHT22;14844;51.302;6.354;2023-02-03T05:20:50;9.30;99.90
27376;DHT22;14844;51.302;6.354;2023-02-03T05:23:16;9.20;99.90
27376;DHT22;14844;51.302;6.354;2023-02-03T05:25:43;9.30;99.90
27376;DHT22;14844;51.302;6.354;2023-02-03T05:28:11;9.30;99.90
27376;DHT22;14844;51.302;6.354;2023-02-03T05:30:37;9.30;99.90
27376;DHT22;14844;51.302;6.354;2023-02-03T05:33:02;9.20;99.90
27376;DHT22;14844;51.302;6.354;2023-02-03T05:35:28;9.30;99.90
27376;DHT22;14844;51.302;6.354;2023-02-03T05:37:53;9.30;99.90
27376;DHT22;14844;51.302;6.354;2023-02-03T05:40:19;9.30;99.90
27376;DHT22;14844;51.302;6.354;2023-02-03T05:43:03;9.30;99.90
27376;DHT22;14844;51.302;6.354;2023-02-03T05:45:29;9.30;99.90
27376;DHT22;14844;51.302;6.354;2023-02-03T05:47:55;9.30;99.90
27376;DHT22;14844;51.302;6.354;2023-02-03T05:50:21;9.30;99.90
27376;DHT22;14844;51.302;6.354;2023-02-03T05:52:47;9.30;99.90
27376;DHT22;14844;51.302;6.354;2023-02-03T05:55:13;9.30;99.90
27376;DHT22;14844;51.302;6.354;2023-02-03T05:57:41;9.30;99.90
27376;DHT22;14844;51.302;6.354;2023-02-03T06:00:07;9.30;99.90
27376;DHT22;14844;51.302;6.354;2023-02-03T06:02:33;9.30;99.90
27376;DHT22;14844;51.302;6.354;2023-02-03T06:04:59;9.30;99.90
27376;DHT22;14844;51.302;6.354;2023-02-03T06:07:24;9.30;99.90
27376;DHT22;14844;51.302;6.354;2023-02-03T06:09:50;9.30;99.90
27376;DHT22;14844;51.302;6.354;2023-02-03T06:12:16;9.30;99.90
27376;DHT22;14844;51.302;6.354;2023-02-03T06:14:41;9.30;99.90
27376;DHT22;14844;51.302;6.354;2023-02-03T06:17:07;9.30;99.90
27376;DHT22;14844;51.302;6.354;2023-02-03T06:19:33;9.30;99.90
27376;DHT22;14844;51.302;6.354;2023-02-03T06:21:58;9.30;99.90
27376;DHT22;14844;51.302;6.354;2023-02-03T06:24:24;9.30;99.90
27376;DHT22;14844;51.302;6.354;2023-02-03T06:26:50;9.30;99.90
27376;DHT22;14844;51.302;6.354;2023-02-03T06:29:15;9.30;99.90
27376;DHT22;14844;51.302;6.354;2023-02-03T06:31:41;9.30;99.90
27376;DHT22;14844;51.302;6.354;2023-02-03T06:34:09;9.30;99.90
27376;DHT22;14844;51.302;6.354;2023-02-03T06:36:34;9.30;99.90
27376;DHT22;14844;51.302;6.354;2023-02-03T06:39:00;9.30;99.90
27376;DHT22;14844;51.302;6.354;2023-02-03T06:41:28;9.30;99.90
27376;DHT22;14844;51.302;6.354;2023-02-03T06:43:57;9.30;99.90
27376;DHT22;14844;51.302;6.354;2023-02-03T06:46:22;9.30;99.90
27376;DHT22;14844;51.302;6.354;2023-02-03T06:48:53;9.30;99.90
27376;DHT22;14844;51.302;6.354;2023-02-03T06:51:19;9.30;99.90
27376;DHT22;14844;51.302;6.354;2023-02-03T06:53:44;9.30;99.90
27376;DHT22;14844;51.302;6.354;2023-02-03T06:56:10;9.30;99.90
27376;DHT22;14844;51.302;6.354;2023-02-03T06:58:36;9.30;99.90
27376;DHT22;14844;51.302;6.354;2023-02-03T07:01:02;9.30;99.90
27376;DHT22;14844;51.302;6.354;2023-02-03T07:03:27;9.30;99.90
27376;DHT22;14844;51.302;6.354;2023-02-03T07:05:55;9.20;99.90
27376;DHT22;14844;51.302;6.354;2023-02-03T07:08:21;9.30;99.90
27376;DHT22;14844;51.302;6.354;2023-02-03T07:10:47;9.30;99.90
27376;DHT22;14844;51.302;6.354;2023-02-03T07:13:12;9.30;99.90
27376;DHT22;14844;51.302;6.354;2023-02-03T07:15:38;9.30;99.90
27376;DHT22;14844;51.302;6.354;2023-02-03T07:18:04;9.30;99.90
27376;DHT22;14844;51.302;6.354;2023-02-03T07:20:32;9.30;99.90
27376;DHT22;14844;51.302;6.354;2023-02-03T07:22:58;9.30;99.90
27376;DHT22;14844;51.302;6.354;2023-02-03T07:25:26;9.30;99.90
27376;DHT22;14844;51.302;6.354;2023-02-03T07:27:53;9.30;99.90
27376;DHT22;14844;51.302;6.354;2023-02-03T07:30:18;9.30;99.90
27376;DHT22;14844;51.302;6.354;2023-02-03T07:32:51;9.30;99.90
27376;DHT22;14844;51.302;6.354;2023-02-03T07:35:35;9.40;99.90
27376;DHT22;14844;51.302;6.354;2023-02-03T07:38:00;9.40;99.90
27376;DHT22;14844;51.302;6.354;2023-02-03T07:40:26;9.30;99.90
27376;DHT22;14844;51.302;6.354;2023-02-03T07:42:52;9.40;99.90
27376;DHT22;14844;51.302;6.354;2023-02-03T07:45:18;9.40;99.90
27376;DHT22;14844;51.302;6.354;2023-02-03T07:47:44;9.40;99.90
27376;DHT22;14844;51.302;6.354;2023-02-03T07:50:12;9.40;99.90
27376;DHT22;14844;51.302;6.354;2023-02-03T07:52:38;9.40;99.90
27376;DHT22;14844;51.302;6.354;2023-02-03T07:55:04;9.40;99.90
27376;DHT22;14844;51.302;6.354;2023-02-03T07:57:30;9.40;99.90
27376;DHT22;14844;51.302;6.354;2023-02-03T07:59:55;9.40;99.90
27376;DHT22;14844;51.302;6.354;2023-02-03T08:02:21;9.40;99.90
27376;DHT22;14844;51.302;6.354;2023-02-03T08:04:47;9.40;99.90
27376;DHT22;14844;51.302;6.354;2023-02-03T08:07:12;9.50;99.90
27376;DHT22;14844;51.302;6.354;2023-02-03T08:09:38;9.40;99.90
27376;DHT22;14844;51.302;6.354;2023-02-03T08:12:04;9.40;99.90
27376;DHT22;14844;51.302;6.354;2023-02-03T08:14:29;9.40;99.90
27376;DHT22;14844;51.302;6.354;2023-02-03T08:16:58;9.40;99.90
27376;DHT22;14844;51.302;6.354;2023-02-03T08:19:27;9.50;99.90
27376;DHT22;14844;51.302;6.354;2023-02-03T08:21:53;9.40;99.90
27376;DHT22;14844;51.302;6.354;2023-02-03T08:24:19;9.50;99.90
27376;DHT22;14844;51.302;6.354;2023-02-03T08:26:45;9.50;99.90
27376;DHT22;14844;51.302;6.354;2023-02-03T08:29:16;9.50;99.90
27376;DHT22;14844;51.302;6.354;2023-02-03T08:31:46;9.50;99.90
27376;DHT22;14844;51.302;6.354;2023-02-03T08:34:12;9.50;99.90
27376;DHT22;14844;51.302;6.354;2023-02-03T08:36:40;9.50;99.90
27376;DHT22;14844;51.302;6.354;2023-02-03T08:39:08;9.50;99.90
27376;DHT22;14844;51.302;6.354;2023-02-03T08:41:36;9.50;99.90
27376;DHT22;14844;51.302;6.354;2023-02-03T08:44:05;9.50;99.90
27376;DHT22;14844;51.302;6.354;2023-02-03T08:46:31;9.30;99.90
27376;DHT22;14844;51.302;6.354;2023-02-03T08:48:57;9.20;99.90
27376;DHT22;14844;51.302;6.354;2023-02-03T08:51:25;9.20;99.90
27376;DHT22;14844;51.302;6.354;2023-02-03T08:53:51;9.10;99.90
27376;DHT22;14844;51.302;6.354;2023-02-03T08:56:17;9.10;99.90
27376;DHT22;14844;51.302;6.354;2023-02-03T08:58:49;9.00;99.90
27376;DHT22;14844;51.302;6.354;2023-02-03T09:01:16;8.90;99.90
27376;DHT22;14844;51.302;6.354;2023-02-03T09:03:42;8.90;99.90
27376;DHT22;14844;51.302;6.354;2023-02-03T09:06:12;8.80;99.90
27376;DHT22;14844;51.302;6.354;2023-02-03T09:08:44;8.80;99.90
27376;DHT22;14844;51.302;6.354;2023-02-03T09:11:12;8.80;99.90
27376;DHT22;14844;51.302;6.354;2023-02-03T09:13:39;8.80;99.90
27376;DHT22;14844;51.302;6.354;2023-02-03T09:16:11;8.90;99.90
27376;DHT22;14844;51.302;6.354;2023-02-03T09:18:43;9.00;99.90
27376;DHT22;14844;51.302;6.354;2023-02-03T09:21:11;8.90;99.90
27376;DHT22;14844;51.302;6.354;2023-02-03T09:23:38;9.00;99.90
27376;DHT22;14844;51.302;6.354;2023-02-03T09:26:11;9.00;99.90
27376;DHT22;14844;51.302;6.354;2023-02-03T09:28:51;9.00;99.90
27376;DHT22;14844;51.302;6.354;2023-02-03T09:31:18;9.00;99.90
27376;DHT22;14844;51.302;6.354;2023-02-03T09:33:50;8.90;99.90
27376;DHT22;14844;51.302;6.354;2023-02-03T09:36:16;8.90;99.90
27376;DHT22;14844;51.302;6.354;2023-02-03T09:38:49;8.90;99.90
27376;DHT22;14844;51.302;6.354;2023-02-03T09:44:27;8.80;99.90
27376;DHT22;14844;51.302;6.354;2023-02-03T09:47:03;8.80;99.90
27376;DHT22;14844;51.302;6.354;2023-02-03T09:52:23;8.70;99.90
27376;DHT22;14844;51.302;6.354;2023-02-03T09:55:02;8.70;99.90
27376;DHT22;14844;51.302;6.354;2023-02-03T09:57:31;8.80;99.90
27376;DHT22;14844;51.302;6.354;2023-02-03T10:00:03;8.70;99.90
27376;DHT22;14844;51.302;6.354;2023-02-03T10:05:52;8.80;99.90
27376;DHT22;14844;51.302;6.354;2023-02-03T10:17:29;8.90;99.90
27376;DHT22;14844;51.302;6.354;2023-02-03T10:20:10;9.00;99.90
27376;DHT22;14844;51.302;6.354;2023-02-03T10:22:44;9.00;99.90
27376;DHT22;14844;51.302;6.354;2023-02-03T10:25:18;9.10;99.90
27376;DHT22;14844;51.302;6.354;2023-02-03T10:27:52;9.10;99.90
27376;DHT22;14844;51.302;6.354;2023-02-03T10:30:28;9.20;99.90
27376;DHT22;14844;51.302;6.354;2023-02-03T10:33:01;9.30;99.90
27376;DHT22;14844;51.302;6.354;2023-02-03T10:35:54;9.20;99.90
27376;DHT22;14844;51.302;6.354;2023-02-03T10:38:40;9.30;99.90
27376;DHT22;14844;51.302;6.354;2023-02-03T10:41:10;9.30;99.90
27376;DHT22;14844;51.302;6.354;2023-02-03T10:43:39;9.30;99.90
27376;DHT22;14844;51.302;6.354;2023-02-03T10:46:22;9.40;99.90
27376;DHT22;14844;51.302;6.354;2023-02-03T10:49:00;9.40;99.90
27376;DHT22;14844;51.302;6.354;2023-02-03T10:51:28;9.50;99.90
27376;DHT22;14844;51.302;6.354;2023-02-03T10:53:56;9.60;99.90
27376;DHT22;14844;51.302;6.354;2023-02-03T10:56:25;9.70;99.90
27376;DHT22;14844;51.302;6.354;2023-02-03T10:58:56;9.70;99.90
27376;DHT22;14844;51.302;6.354;2023-02-03T11:01:43;9.70;99.90
27376;DHT22;14844;51.302;6.354;2023-02-03T11:04:26;9.70;99.90
27376;DHT22;14844;51.302;6.354;2023-02-03T11:06:58;9.70;99.90
27376;DHT22;14844;51.302;6.354;2023-02-03T11:09:39;9.70;99.90
27376;DHT22;14844;51.302;6.354;2023-02-03T11:12:13;9.80;99.90
27376;DHT22;14844;51.302;6.354;2023-02-03T11:14:43;9.80;99.90
27376;DHT22;14844;51.302;6.354;2023-02-03T11:17:19;9.80;99.90
27376;DHT22;14844;51.302;6.354;2023-02-03T11:19:52;9.90;99.90
27376;DHT22;14844;51.302;6.354;2023-02-03T11:22:38;9.90;99.90
27376;DHT22;14844;51.302;6.354;2023-02-03T11:25:21;10.00;99.90
27376;DHT22;14844;51.302;6.354;2023-02-03T11:27:53;10.00;99.90
27376;DHT22;14844;51.302;6.354;2023-02-03T11:30:25;10.10;99.90
27376;DHT22;14844;51.302;6.354;2023-02-03T11:32:54;10.10;99.90
27376;DHT22;14844;51.302;6.354;2023-02-03T11:37:49;10.10;99.90
27376;DHT22;14844;51.302;6.354;2023-02-03T11:42:45;10.20;99.90
27376;DHT22;14844;51.302;6.354;2023-02-03T11:45:37;10.30;99.90
27376;DHT22;14844;51.302;6.354;2023-02-03T11:57:02;10.30;99.90
27376;DHT22;14844;51.302;6.354;2023-02-03T11:59:35;10.20;99.90
27376;DHT22;14844;51.302;6.354;2023-02-03T12:16:50;10.30;99.90
27376;DHT22;14844;51.302;6.354;2023-02-03T12:22:48;10.40;99.90
27376;DHT22;14844;51.302;6.354;2023-02-03T12:28:02;10.40;99.90
27376;DHT22;14844;51.302;6.354;2023-02-03T12:30:38;10.50;99.90
27376;DHT22;14844;51.302;6.354;2023-02-03T12:33:43;10.50;99.90
27376;DHT22;14844;51.302;6.354;2023-02-03T12:36:31;10.50;99.90
27376;DHT22;14844;51.302;6.354;2023-02-03T12:39:49;10.50;99.90
27376;DHT22;14844;51.302;6.354;2023-02-03T12:45:29;10.60;99.90
27376;DHT22;14844;51.302;6.354;2023-02-03T12:48:12;10.60;99.90
27376;DHT22;14844;51.302;6.354;2023-02-03T12:50:44;10.60;99.90
27376;DHT22;14844;51.302;6.354;2023-02-03T12:55:46;10.60;99.90
27376;DHT22;14844;51.302;6.354;2023-02-03T12:58:24;10.60;99.90
27376;DHT22;14844;51.302;6.354;2023-02-03T13:00:57;10.60;99.90
27376;DHT22;14844;51.302;6.354;2023-02-03T13:06:07;10.60;99.90
27376;DHT22;14844;51.302;6.354;2023-02-03T13:08:55;10.60;99.90
27376;DHT22;14844;51.302;6.354;2023-02-03T13:14:18;10.60;99.90
27376;DHT22;14844;51.302;6.354;2023-02-03T13:16:49;10.60;99.90
27376;DHT22;14844;51.302;6.354;2023-02-03T13:19:21;10.60;99.90
27376;DHT22;14844;51.302;6.354;2023-02-03T13:21:49;10.70;99.90
27376;DHT22;14844;51.302;6.354;2023-02-03T13:24:16;10.70;99.90
27376;DHT22;14844;51.302;6.354;2023-02-03T13:29:42;10.70;99.90
27376;DHT22;14844;51.302;6.354;2023-02-03T13:32:32;10.70;99.90
27376;DHT22;14844;51.302;6.354;2023-02-03T13:35:33;10.70;99.90
27376;DHT22;14844;51.302;6.354;2023-02-03T13:44:06;10.80;99.90
27376;DHT22;14844;51.302;6.354;2023-02-03T13:46:45;10.80;99.90
27376;DHT22;14844;51.302;6.354;2023-02-03T13:49:36;10.90;99.90
27376;DHT22;14844;51.302;6.354;2023-02-03T13:52:03;10.90;99.90
27376;DHT22;14844;51.302;6.354;2023-02-03T13:54:37;11.00;99.90
27376;DHT22;14844;51.302;6.354;2023-02-03T13:57:28;11.10;99.90
27376;DHT22;14844;51.302;6.354;2023-02-03T13:59:59;11.20;99.90
27376;DHT22;14844;51.302;6.354;2023-02-03T14:04:53;11.20;99.90
27376;DHT22;14844;51.302;6.354;2023-02-03T14:07:28;11.20;99.90
27376;DHT22;14844;51.302;6.354;2023-02-03T14:12:56;11.30;99.90
27376;DHT22;14844;51.302;6.354;2023-02-03T14:15:30;11.30;99.90
27376;DHT22;14844;51.302;6.354;2023-02-03T14:18:05;11.40;99.90
27376;DHT22;14844;51.302;6.354;2023-02-03T14:20:54;11.30;99.90
27376;DHT22;14844;51.302;6.354;2023-02-03T14:23:26;11.30;99.90
27376;DHT22;14844;51.302;6.354;2023-02-03T14:25:59;11.30;99.90
27376;DHT22;14844;51.302;6.354;2023-02-03T14:28:37;11.20;99.90
27376;DHT22;14844;51.302;6.354;2023-02-03T14:34:10;11.10;99.90
27376;DHT22;14844;51.302;6.354;2023-02-03T14:36:39;11.10;99.90
27376;DHT22;14844;51.302;6.354;2023-02-03T14:42:40;11.00;99.90
27376;DHT22;14844;51.302;6.354;2023-02-03T14:45:28;11.00;99.90
27376;DHT22;14844;51.302;6.354;2023-02-03T14:59:42;11.00;99.90
27376;DHT22;14844;51.302;6.354;2023-02-03T15:02:19;11.00;99.90
27376;DHT22;14844;51.302;6.354;2023-02-03T15:04:46;11.00;99.90
27376;DHT22;14844;51.302;6.354;2023-02-03T15:07:36;11.00;99.90
27376;DHT22;14844;51.302;6.354;2023-02-03T15:10:11;10.90;99.90
27376;DHT22;14844;51.302;6.354;2023-02-03T15:12:37;10.80;99.90
27376;DHT22;14844;51.302;6.354;2023-02-03T15:15:20;10.70;99.90
27376;DHT22;14844;51.302;6.354;2023-02-03T15:17:56;10.70;99.90
27376;DHT22;14844;51.302;6.354;2023-02-03T15:20:36;10.70;99.90
27376;DHT22;14844;51.302;6.354;2023-02-03T15:25:43;10.40;99.90
27376;DHT22;14844;51.302;6.354;2023-02-03T15:28:20;10.10;99.90
27376;DHT22;14844;51.302;6.354;2023-02-03T15:31:00;9.90;99.90
27376;DHT22;14844;51.302;6.354;2023-02-03T15:33:28;9.90;99.90
27376;DHT22;14844;51.302;6.354;2023-02-03T15:36:03;9.80;99.90
27376;DHT22;14844;51.302;6.354;2023-02-03T15:38:35;9.60;99.90
27376;DHT22;14844;51.302;6.354;2023-02-03T15:41:03;9.50;99.90
27376;DHT22;14844;51.302;6.354;2023-02-03T15:43:35;9.50;99.90
27376;DHT22;14844;51.302;6.354;2023-02-03T15:51:53;9.40;99.90
27376;DHT22;14844;51.302;6.354;2023-02-03T15:54:20;9.40;99.90
27376;DHT22;14844;51.302;6.354;2023-02-03T15:57:00;9.40;99.90
27376;DHT22;14844;51.302;6.354;2023-02-03T15:59:40;9.40;99.90
27376;DHT22;14844;51.302;6.354;2023-02-03T16:02:20;9.50;99.90
27376;DHT22;14844;51.302;6.354;2023-02-03T16:04:47;9.50;99.90
27376;DHT22;14844;51.302;6.354;2023-02-03T16:07:23;9.50;99.90
27376;DHT22;14844;51.302;6.354;2023-02-03T16:09:54;9.50;99.90
27376;DHT22;14844;51.302;6.354;2023-02-03T16:14:49;9.50;99.90
27376;DHT22;14844;51.302;6.354;2023-02-03T16:17:29;9.50;99.90
27376;DHT22;14844;51.302;6.354;2023-02-03T16:22:42;9.50;99.90
27376;DHT22;14844;51.302;6.354;2023-02-03T16:25:23;9.50;99.90
27376;DHT22;14844;51.302;6.354;2023-02-03T16:28:14;9.50;99.90
27376;DHT22;14844;51.302;6.354;2023-02-03T16:31:10;9.50;99.90
27376;DHT22;14844;51.302;6.354;2023-02-03T16:33:55;9.50;99.90
27376;DHT22;14844;51.302;6.354;2023-02-03T16:36:41;9.50;99.90
27376;DHT22;14844;51.302;6.354;2023-02-03T16:39:26;9.50;99.90
27376;DHT22;14844;51.302;6.354;2023-02-03T16:42:18;9.50;99.90
27376;DHT22;14844;51.302;6.354;2023-02-03T16:45:14;9.40;99.90
27376;DHT22;14844;51.302;6.354;2023-02-03T16:48:03;9.40;99.90
27376;DHT22;14844;51.302;6.354;2023-02-03T16:50:48;9.40;99.90
27376;DHT22;14844;51.302;6.354;2023-02-03T16:53:26;9.40;99.90
27376;DHT22;14844;51.302;6.354;2023-02-03T16:55:56;9.30;99.90
27376;DHT22;14844;51.302;6.354;2023-02-03T16:58:22;9.30;99.90
27376;DHT22;14844;51.302;6.354;2023-02-03T17:00:51;9.30;99.90
27376;DHT22;14844;51.302;6.354;2023-02-03T17:03:21;9.30;99.90
27376;DHT22;14844;51.302;6.354;2023-02-03T17:05:48;9.30;99.90
27376;DHT22;14844;51.302;6.354;2023-02-03T17:08:16;9.30;99.90
27376;DHT22;14844;51.302;6.354;2023-02-03T17:10:43;9.30;99.90
27376;DHT22;14844;51.302;6.354;2023-02-03T17:13:10;9.20;99.90
27376;DHT22;14844;51.302;6.354;2023-02-03T17:15:50;9.20;99.90
27376;DHT22;14844;51.302;6.354;2023-02-03T17:18:19;9.20;99.90
27376;DHT22;14844;51.302;6.354;2023-02-03T17:20:45;9.20;99.90
27376;DHT22;14844;51.302;6.354;2023-02-03T17:23:12;9.20;99.90
27376;DHT22;14844;51.302;6.354;2023-02-03T17:25:38;9.20;99.90
27376;DHT22;14844;51.302;6.354;2023-02-03T17:28:06;9.20;99.90
27376;DHT22;14844;51.302;6.354;2023-02-03T17:30:32;9.20;99.90
27376;DHT22;14844;51.302;6.354;2023-02-03T17:33:05;9.20;99.90
27376;DHT22;14844;51.302;6.354;2023-02-03T17:35:43;9.10;99.90
27376;DHT22;14844;51.302;6.354;2023-02-03T17:38:11;9.10;99.90
27376;DHT22;14844;51.302;6.354;2023-02-03T17:40:41;9.10;99.90
27376;DHT22;14844;51.302;6.354;2023-02-03T17:43:07;9.10;99.90
27376;DHT22;14844;51.302;6.354;2023-02-03T17:45:39;9.10;99.90
27376;DHT22;14844;51.302;6.354;2023-02-03T17:48:04;9.10;99.90
27376;DHT22;14844;51.302;6.354;2023-02-03T17:50:30;9.10;99.90
27376;DHT22;14844;51.302;6.354;2023-02-03T17:52:56;9.10;99.90
27376;DHT22;14844;51.302;6.354;2023-02-03T17:55:22;9.10;99.90
27376;DHT22;14844;51.302;6.354;2023-02-03T17:57:47;9.10;99.90
27376;DHT22;14844;51.302;6.354;2023-02-03T18:00:13;9.10;99.90
27376;DHT22;14844;51.302;6.354;2023-02-03T18:02:39;9.10;99.90
27376;DHT22;14844;51.302;6.354;2023-02-03T18:05:06;9.10;99.90
27376;DHT22;14844;51.302;6.354;2023-02-03T18:07:32;9.10;99.90
27376;DHT22;14844;51.302;6.354;2023-02-03T18:09:58;9.10;99.90
27376;DHT22;14844;51.302;6.354;2023-02-03T18:12:23;9.10;99.90
27376;DHT22;14844;51.302;6.354;2023-02-03T18:14:49;9.10;99.90
27376;DHT22;14844;51.302;6.354;2023-02-03T18:17:15;9.00;99.90